sensor_id;sensor_type;location;lat;lon;timestamp;P1;durP1;ratioP1;P2;durP2;ratioP2
9821;SDS011;4950;46.042;14.472;2024-01-11T00:01:35;61.30;;;33.77;;
9821;SDS011;4950;46.042;14.472;2024-01-11T00:04:02;69.50;;;33.23;;
9821;SDS011;4950;46.042;14.472;2024-01-11T00:06:29;63.47;;;33.33;;
9821;SDS011;4950;46.042;14.472;2024-01-11T00:08:55;65.73;;;34.20;;
9821;SDS011;4950;46.042;14.472;2024-01-11T00:11:22;62.73;;;32.50;;
9821;SDS011;4950;46.042;14.472;2024-01-11T00:13:49;65.07;;;33.47;;
9821;SDS011;4950;46.042;14.472;2024-01-11T00:16:15;60.17;;;33.53;;
9821;SDS011;4950;46.042;14.472;2024-01-11T00:18:43;65.30;;;35.17;;
9821;SDS011;4950;46.042;14.472;2024-01-11T00:21:10;63.37;;;34.00;;
9821;SDS011;4950;46.042;14.472;2024-01-11T00:23:37;62.43;;;32.47;;
9821;SDS011;4950;46.042;14.472;2024-01-11T00:26:04;61.23;;;32.20;;
9821;SDS011;4950;46.042;14.472;2024-01-11T00:28:30;59.53;;;32.30;;
9821;SDS011;4950;46.042;14.472;2024-01-11T00:30:57;58.93;;;30.77;;
9821;SDS011;4950;46.042;14.472;2024-01-11T00:33:24;61.20;;;32.80;;
9821;SDS011;4950;46.042;14.472;2024-01-11T00:35:52;58.17;;;32.70;;
9821;SDS011;4950;46.042;14.472;2024-01-11T00:38:19;58.00;;;31.47;;
9821;SDS011;4950;46.042;14.472;2024-01-11T00:40:46;59.67;;;32.23;;
9821;SDS011;4950;46.042;14.472;2024-01-11T00:43:12;54.97;;;28.70;;
9821;SDS011;4950;46.042;14.472;2024-01-11T00:45:39;61.37;;;33.27;;
9821;SDS011;4950;46.042;14.472;2024-01-11T00:48:06;56.00;;;31.20;;
9821;SDS011;4950;46.042;14.472;2024-01-11T00:50:32;61.60;;;33.27;;
9821;SDS011;4950;46.042;14.472;2024-01-11T00:53:01;59.27;;;32.03;;
9821;SDS011;4950;46.042;14.472;2024-01-11T00:55:28;60.03;;;32.53;;
9821;SDS011;4950;46.042;14.472;2024-01-11T00:57:54;57.63;;;31.00;;
9821;SDS011;4950;46.042;14.472;2024-01-11T01:00:21;59.60;;;31.13;;
9821;SDS011;4950;46.042;14.472;2024-01-11T01:02:49;58.73;;;30.87;;
9821;SDS011;4950;46.042;14.472;2024-01-11T01:05:16;61.63;;;31.60;;
9821;SDS011;4950;46.042;14.472;2024-01-11T01:07:42;55.27;;;31.17;;
9821;SDS011;4950;46.042;14.472;2024-01-11T01:10:12;59.13;;;30.87;;
9821;SDS011;4950;46.042;14.472;2024-01-11T01:12:39;61.77;;;31.50;;
9821;SDS011;4950;46.042;14.472;2024-01-11T01:15:06;60.30;;;31.43;;
9821;SDS011;4950;46.042;14.472;2024-01-11T01:17:33;58.03;;;31.57;;
9821;SDS011;4950;46.042;14.472;2024-01-11T01:20:00;58.07;;;30.37;;
9821;SDS011;4950;46.042;14.472;2024-01-11T01:22:27;56.37;;;31.17;;
9821;SDS011;4950;46.042;14.472;2024-01-11T01:24:54;55.63;;;30.50;;
9821;SDS011;4950;46.042;14.472;2024-01-11T01:27:22;55.87;;;29.60;;
9821;SDS011;4950;46.042;14.472;2024-01-11T01:29:49;60.03;;;31.13;;
9821;SDS011;4950;46.042;14.472;2024-01-11T01:32:16;54.83;;;29.30;;
9821;SDS011;4950;46.042;14.472;2024-01-11T01:34:43;56.77;;;30.40;;
9821;SDS011;4950;46.042;14.472;2024-01-11T01:37:09;58.57;;;32.77;;
9821;SDS011;4950;46.042;14.472;2024-01-11T01:39:37;53.13;;;29.90;;
9821;SDS011;4950;46.042;14.472;2024-01-11T01:42:06;58.30;;;31.37;;
9821;SDS011;4950;46.042;14.472;2024-01-11T01:44:34;53.60;;;29.30;;
9821;SDS011;4950;46.042;14.472;2024-01-11T01:47:00;56.73;;;29.90;;
9821;SDS011;4950;46.042;14.472;2024-01-11T01:49:30;59.50;;;31.77;;
9821;SDS011;4950;46.042;14.472;2024-01-11T01:51:56;56.23;;;30.17;;
9821;SDS011;4950;46.042;14.472;2024-01-11T01:54:23;52.87;;;29.30;;
9821;SDS011;4950;46.042;14.472;2024-01-11T01:56:50;53.07;;;30.23;;
9821;SDS011;4950;46.042;14.472;2024-01-11T01:59:19;60.80;;;31.53;;
9821;SDS011;4950;46.042;14.472;2024-01-11T02:01:48;54.43;;;30.10;;
9821;SDS011;4950;46.042;14.472;2024-01-11T02:04:15;60.37;;;31.00;;
9821;SDS011;4950;46.042;14.472;2024-01-11T02:06:42;58.27;;;31.23;;
9821;SDS011;4950;46.042;14.472;2024-01-11T02:09:12;61.90;;;31.17;;
9821;SDS011;4950;46.042;14.472;2024-01-11T02:11:39;55.80;;;29.77;;
9821;SDS011;4950;46.042;14.472;2024-01-11T02:14:07;58.80;;;31.20;;
9821;SDS011;4950;46.042;14.472;2024-01-11T02:16:37;59.47;;;32.70;;
9821;SDS011;4950;46.042;14.472;2024-01-11T02:19:05;65.17;;;33.17;;
9821;SDS011;4950;46.042;14.472;2024-01-11T02:21:33;59.58;;;31.40;;
9821;SDS011;4950;46.042;14.472;2024-01-11T02:24:05;65.07;;;34.07;;
9821;SDS011;4950;46.042;14.472;2024-01-11T02:26:33;60.53;;;32.03;;
9821;SDS011;4950;46.042;14.472;2024-01-11T02:29:00;60.57;;;30.87;;
9821;SDS011;4950;46.042;14.472;2024-01-11T02:31:27;57.90;;;30.27;;
9821;SDS011;4950;46.042;14.472;2024-01-11T02:33:53;61.27;;;31.27;;
9821;SDS011;4950;46.042;14.472;2024-01-11T02:36:21;54.13;;;29.83;;
9821;SDS011;4950;46.042;14.472;2024-01-11T02:38:48;57.87;;;29.93;;
9821;SDS011;4950;46.042;14.472;2024-01-11T02:41:19;56.10;;;31.02;;
9821;SDS011;4950;46.042;14.472;2024-01-11T02:43:47;55.00;;;29.52;;
9821;SDS011;4950;46.042;14.472;2024-01-11T02:46:14;57.50;;;30.20;;
9821;SDS011;4950;46.042;14.472;2024-01-11T02:48:41;49.20;;;29.10;;
9821;SDS011;4950;46.042;14.472;2024-01-11T02:51:07;57.73;;;31.33;;
9821;SDS011;4950;46.042;14.472;2024-01-11T02:53:33;55.60;;;29.53;;
9821;SDS011;4950;46.042;14.472;2024-01-11T02:56:00;63.50;;;30.23;;
9821;SDS011;4950;46.042;14.472;2024-01-11T02:58:28;53.57;;;30.23;;
9821;SDS011;4950;46.042;14.472;2024-01-11T03:00:55;57.40;;;31.40;;
9821;SDS011;4950;46.042;14.472;2024-01-11T03:03:21;52.97;;;30.13;;
9821;SDS011;4950;46.042;14.472;2024-01-11T03:05:48;60.53;;;31.50;;
9821;SDS011;4950;46.042;14.472;2024-01-11T03:08:15;60.93;;;32.13;;
9821;SDS011;4950;46.042;14.472;2024-01-11T03:10:41;55.97;;;31.07;;
9821;SDS011;4950;46.042;14.472;2024-01-11T03:13:08;60.60;;;31.57;;
9821;SDS011;4950;46.042;14.472;2024-01-11T03:15:36;60.40;;;31.20;;
9821;SDS011;4950;46.042;14.472;2024-01-11T03:18:03;53.43;;;29.87;;
9821;SDS011;4950;46.042;14.472;2024-01-11T03:20:30;63.13;;;32.63;;
9821;SDS011;4950;46.042;14.472;2024-01-11T03:22:56;56.60;;;30.97;;
9821;SDS011;4950;46.042;14.472;2024-01-11T03:25:23;55.60;;;30.10;;
9821;SDS011;4950;46.042;14.472;2024-01-11T03:27:50;58.00;;;30.97;;
9821;SDS011;4950;46.042;14.472;2024-01-11T03:30:16;56.63;;;30.13;;
9821;SDS011;4950;46.042;14.472;2024-01-11T03:32:44;59.30;;;29.57;;
9821;SDS011;4950;46.042;14.472;2024-01-11T03:35:11;61.50;;;31.30;;
9821;SDS011;4950;46.042;14.472;2024-01-11T03:37:38;56.53;;;29.37;;
9821;SDS011;4950;46.042;14.472;2024-01-11T03:40:05;55.20;;;30.00;;
9821;SDS011;4950;46.042;14.472;2024-01-11T03:42:32;56.27;;;31.10;;
9821;SDS011;4950;46.042;14.472;2024-01-11T03:44:59;59.87;;;31.50;;
9821;SDS011;4950;46.042;14.472;2024-01-11T03:47:26;50.40;;;30.23;;
9821;SDS011;4950;46.042;14.472;2024-01-11T03:49:54;55.23;;;30.23;;
9821;SDS011;4950;46.042;14.472;2024-01-11T03:52:20;58.27;;;31.47;;
9821;SDS011;4950;46.042;14.472;2024-01-11T03:54:47;52.23;;;29.00;;
9821;SDS011;4950;46.042;14.472;2024-01-11T03:57:14;60.00;;;31.03;;
9821;SDS011;4950;46.042;14.472;2024-01-11T03:59:42;58.57;;;32.10;;
9821;SDS011;4950;46.042;14.472;2024-01-11T04:02:10;59.80;;;31.87;;
9821;SDS011;4950;46.042;14.472;2024-01-11T04:04:36;66.70;;;34.97;;
9821;SDS011;4950;46.042;14.472;2024-01-11T04:07:04;66.67;;;35.30;;
9821;SDS011;4950;46.042;14.472;2024-01-11T04:09:31;66.57;;;33.47;;
9821;SDS011;4950;46.042;14.472;2024-01-11T04:11:58;70.20;;;36.40;;
9821;SDS011;4950;46.042;14.472;2024-01-11T04:14:24;72.13;;;36.60;;
9821;SDS011;4950;46.042;14.472;2024-01-11T04:16:51;73.37;;;37.97;;
9821;SDS011;4950;46.042;14.472;2024-01-11T04:19:18;71.53;;;36.10;;
9821;SDS011;4950;46.042;14.472;2024-01-11T04:21:44;73.17;;;36.03;;
9821;SDS011;4950;46.042;14.472;2024-01-11T04:24:12;71.63;;;36.80;;
9821;SDS011;4950;46.042;14.472;2024-01-11T04:26:39;77.60;;;37.80;;
9821;SDS011;4950;46.042;14.472;2024-01-11T04:29:06;70.97;;;36.17;;
9821;SDS011;4950;46.042;14.472;2024-01-11T04:31:33;71.70;;;35.43;;
9821;SDS011;4950;46.042;14.472;2024-01-11T04:34:00;61.00;;;31.57;;
9821;SDS011;4950;46.042;14.472;2024-01-11T04:36:26;64.33;;;33.33;;
9821;SDS011;4950;46.042;14.472;2024-01-11T04:38:53;60.33;;;31.80;;
9821;SDS011;4950;46.042;14.472;2024-01-11T04:41:21;68.33;;;35.70;;
9821;SDS011;4950;46.042;14.472;2024-01-11T04:43:48;66.93;;;33.80;;
9821;SDS011;4950;46.042;14.472;2024-01-11T04:46:15;66.07;;;33.57;;
9821;SDS011;4950;46.042;14.472;2024-01-11T04:48:42;58.20;;;30.93;;
9821;SDS011;4950;46.042;14.472;2024-01-11T04:51:10;59.00;;;30.73;;
9821;SDS011;4950;46.042;14.472;2024-01-11T04:53:37;55.57;;;30.17;;
9821;SDS011;4950;46.042;14.472;2024-01-11T04:56:05;63.20;;;32.17;;
9821;SDS011;4950;46.042;14.472;2024-01-11T04:58:34;57.27;;;30.90;;
9821;SDS011;4950;46.042;14.472;2024-01-11T05:01:01;60.80;;;31.55;;
9821;SDS011;4950;46.042;14.472;2024-01-11T05:03:28;57.20;;;31.63;;
9821;SDS011;4950;46.042;14.472;2024-01-11T05:05:55;57.53;;;32.03;;
9821;SDS011;4950;46.042;14.472;2024-01-11T05:08:22;56.27;;;30.70;;
9821;SDS011;4950;46.042;14.472;2024-01-11T05:10:49;58.17;;;30.50;;
9821;SDS011;4950;46.042;14.472;2024-01-11T05:13:15;55.53;;;30.67;;
9821;SDS011;4950;46.042;14.472;2024-01-11T05:15:43;62.23;;;32.40;;
9821;SDS011;4950;46.042;14.472;2024-01-11T05:18:10;59.00;;;32.53;;
9821;SDS011;4950;46.042;14.472;2024-01-11T05:20:37;63.43;;;33.00;;
9821;SDS011;4950;46.042;14.472;2024-01-11T05:23:04;57.83;;;32.03;;
9821;SDS011;4950;46.042;14.472;2024-01-11T05:25:31;56.03;;;31.37;;
9821;SDS011;4950;46.042;14.472;2024-01-11T05:27:59;57.27;;;32.10;;
9821;SDS011;4950;46.042;14.472;2024-01-11T05:30:25;62.23;;;32.70;;
9821;SDS011;4950;46.042;14.472;2024-01-11T05:32:53;64.33;;;30.37;;
9821;SDS011;4950;46.042;14.472;2024-01-11T05:35:20;57.13;;;31.83;;
9821;SDS011;4950;46.042;14.472;2024-01-11T05:37:49;64.47;;;33.83;;
9821;SDS011;4950;46.042;14.472;2024-01-11T05:40:15;57.20;;;32.23;;
9821;SDS011;4950;46.042;14.472;2024-01-11T05:42:42;59.77;;;30.97;;
9821;SDS011;4950;46.042;14.472;2024-01-11T05:45:09;58.57;;;31.00;;
9821;SDS011;4950;46.042;14.472;2024-01-11T05:47:35;59.77;;;34.00;;
9821;SDS011;4950;46.042;14.472;2024-01-11T05:50:04;59.27;;;32.97;;
9821;SDS011;4950;46.042;14.472;2024-01-11T05:52:31;64.75;;;33.03;;
9821;SDS011;4950;46.042;14.472;2024-01-11T05:54:58;59.83;;;32.17;;
9821;SDS011;4950;46.042;14.472;2024-01-11T05:57:25;59.20;;;32.63;;
9821;SDS011;4950;46.042;14.472;2024-01-11T05:59:51;61.63;;;33.60;;
9821;SDS011;4950;46.042;14.472;2024-01-11T06:02:18;60.73;;;32.03;;
9821;SDS011;4950;46.042;14.472;2024-01-11T06:04:47;63.42;;;34.67;;
9821;SDS011;4950;46.042;14.472;2024-01-11T06:07:15;60.13;;;31.53;;
9821;SDS011;4950;46.042;14.472;2024-01-11T06:09:42;62.37;;;35.17;;
9821;SDS011;4950;46.042;14.472;2024-01-11T06:12:09;66.93;;;34.80;;
9821;SDS011;4950;46.042;14.472;2024-01-11T06:14:35;71.00;;;35.67;;
9821;SDS011;4950;46.042;14.472;2024-01-11T06:17:02;71.67;;;35.33;;
9821;SDS011;4950;46.042;14.472;2024-01-11T06:19:29;67.63;;;34.77;;
9821;SDS011;4950;46.042;14.472;2024-01-11T06:21:55;62.50;;;32.77;;
9821;SDS011;4950;46.042;14.472;2024-01-11T06:24:23;60.87;;;33.97;;
9821;SDS011;4950;46.042;14.472;2024-01-11T06:26:50;80.47;;;35.93;;
9821;SDS011;4950;46.042;14.472;2024-01-11T06:29:17;73.17;;;36.90;;
9821;SDS011;4950;46.042;14.472;2024-01-11T06:31:43;72.50;;;36.13;;
9821;SDS011;4950;46.042;14.472;2024-01-11T06:34:10;67.67;;;35.90;;
9821;SDS011;4950;46.042;14.472;2024-01-11T06:36:37;67.17;;;36.40;;
9821;SDS011;4950;46.042;14.472;2024-01-11T06:39:03;67.37;;;36.83;;
9821;SDS011;4950;46.042;14.472;2024-01-11T06:41:32;68.83;;;34.73;;
9821;SDS011;4950;46.042;14.472;2024-01-11T06:43:58;71.30;;;35.50;;
9821;SDS011;4950;46.042;14.472;2024-01-11T06:46:25;62.57;;;34.30;;
9821;SDS011;4950;46.042;14.472;2024-01-11T06:48:52;62.57;;;33.83;;
9821;SDS011;4950;46.042;14.472;2024-01-11T06:51:20;70.43;;;35.20;;
9821;SDS011;4950;46.042;14.472;2024-01-11T06:53:47;67.33;;;33.43;;
9821;SDS011;4950;46.042;14.472;2024-01-11T06:56:14;58.50;;;32.63;;
9821;SDS011;4950;46.042;14.472;2024-01-11T06:58:43;61.40;;;33.40;;
9821;SDS011;4950;46.042;14.472;2024-01-11T07:01:10;61.40;;;33.70;;
9821;SDS011;4950;46.042;14.472;2024-01-11T07:03:37;59.33;;;32.70;;
9821;SDS011;4950;46.042;14.472;2024-01-11T07:06:04;56.47;;;32.43;;
9821;SDS011;4950;46.042;14.472;2024-01-11T07:08:32;59.47;;;30.70;;
9821;SDS011;4950;46.042;14.472;2024-01-11T07:10:59;62.50;;;32.90;;
9821;SDS011;4950;46.042;14.472;2024-01-11T07:13:27;57.10;;;30.33;;
9821;SDS011;4950;46.042;14.472;2024-01-11T07:15:55;62.60;;;32.47;;
9821;SDS011;4950;46.042;14.472;2024-01-11T07:18:22;61.10;;;33.45;;
9821;SDS011;4950;46.042;14.472;2024-01-11T07:20:50;62.67;;;33.50;;
9821;SDS011;4950;46.042;14.472;2024-01-11T07:23:16;60.93;;;32.80;;
9821;SDS011;4950;46.042;14.472;2024-01-11T07:25:43;67.03;;;33.80;;
9821;SDS011;4950;46.042;14.472;2024-01-11T07:28:10;62.87;;;33.63;;
9821;SDS011;4950;46.042;14.472;2024-01-11T07:30:36;72.90;;;37.43;;
9821;SDS011;4950;46.042;14.472;2024-01-11T07:33:06;70.13;;;37.07;;
9821;SDS011;4950;46.042;14.472;2024-01-11T07:35:36;65.67;;;35.93;;
9821;SDS011;4950;46.042;14.472;2024-01-11T07:40:29;59.03;;;34.97;;
9821;SDS011;4950;46.042;14.472;2024-01-11T07:42:56;62.40;;;33.73;;
9821;SDS011;4950;46.042;14.472;2024-01-11T07:45:23;65.20;;;34.03;;
9821;SDS011;4950;46.042;14.472;2024-01-11T07:47:49;61.30;;;34.10;;
9821;SDS011;4950;46.042;14.472;2024-01-11T07:50:18;65.93;;;34.60;;
9821;SDS011;4950;46.042;14.472;2024-01-11T07:52:44;61.43;;;35.47;;
9821;SDS011;4950;46.042;14.472;2024-01-11T07:55:11;64.00;;;35.10;;
9821;SDS011;4950;46.042;14.472;2024-01-11T07:57:38;66.80;;;34.93;;
9821;SDS011;4950;46.042;14.472;2024-01-11T08:00:05;62.67;;;34.43;;
9821;SDS011;4950;46.042;14.472;2024-01-11T08:02:34;60.10;;;32.45;;
9821;SDS011;4950;46.042;14.472;2024-01-11T08:05:03;69.27;;;35.47;;
9821;SDS011;4950;46.042;14.472;2024-01-11T08:07:31;64.93;;;33.43;;
9821;SDS011;4950;46.042;14.472;2024-01-11T08:09:58;59.77;;;34.17;;
9821;SDS011;4950;46.042;14.472;2024-01-11T08:12:24;68.60;;;35.17;;
9821;SDS011;4950;46.042;14.472;2024-01-11T08:14:51;59.90;;;34.87;;
9821;SDS011;4950;46.042;14.472;2024-01-11T08:17:18;67.43;;;36.13;;
9821;SDS011;4950;46.042;14.472;2024-01-11T08:19:45;61.93;;;35.03;;
9821;SDS011;4950;46.042;14.472;2024-01-11T08:22:12;72.23;;;36.83;;
9821;SDS011;4950;46.042;14.472;2024-01-11T08:24:40;68.77;;;34.47;;
9821;SDS011;4950;46.042;14.472;2024-01-11T08:27:07;67.33;;;33.70;;
9821;SDS011;4950;46.042;14.472;2024-01-11T08:29:33;62.80;;;35.13;;
9821;SDS011;4950;46.042;14.472;2024-01-11T08:32:00;64.40;;;34.10;;
9821;SDS011;4950;46.042;14.472;2024-01-11T08:34:29;63.67;;;34.17;;
9821;SDS011;4950;46.042;14.472;2024-01-11T08:36:56;63.53;;;34.23;;
9821;SDS011;4950;46.042;14.472;2024-01-11T08:39:23;62.50;;;33.17;;
9821;SDS011;4950;46.042;14.472;2024-01-11T08:41:51;64.93;;;34.77;;
9821;SDS011;4950;46.042;14.472;2024-01-11T08:44:18;65.90;;;35.10;;
9821;SDS011;4950;46.042;14.472;2024-01-11T08:46:44;70.20;;;36.00;;
9821;SDS011;4950;46.042;14.472;2024-01-11T08:49:11;74.90;;;34.47;;
9821;SDS011;4950;46.042;14.472;2024-01-11T08:51:38;66.53;;;34.03;;
9821;SDS011;4950;46.042;14.472;2024-01-11T08:54:05;68.93;;;35.20;;
9821;SDS011;4950;46.042;14.472;2024-01-11T08:56:36;77.30;;;38.23;;
9821;SDS011;4950;46.042;14.472;2024-01-11T08:59:06;75.30;;;37.87;;
9821;SDS011;4950;46.042;14.472;2024-01-11T09:01:33;69.83;;;37.80;;
9821;SDS011;4950;46.042;14.472;2024-01-11T09:04:00;77.33;;;39.27;;
9821;SDS011;4950;46.042;14.472;2024-01-11T09:06:27;71.57;;;38.27;;
9821;SDS011;4950;46.042;14.472;2024-01-11T09:08:54;75.47;;;38.70;;
9821;SDS011;4950;46.042;14.472;2024-01-11T09:11:20;78.07;;;39.87;;
9821;SDS011;4950;46.042;14.472;2024-01-11T09:13:47;81.00;;;41.10;;
9821;SDS011;4950;46.042;14.472;2024-01-11T09:16:16;82.37;;;40.20;;
9821;SDS011;4950;46.042;14.472;2024-01-11T09:18:43;73.17;;;38.43;;
9821;SDS011;4950;46.042;14.472;2024-01-11T09:21:10;69.30;;;37.73;;
9821;SDS011;4950;46.042;14.472;2024-01-11T09:23:37;70.57;;;39.70;;
9821;SDS011;4950;46.042;14.472;2024-01-11T09:26:04;68.30;;;35.27;;
9821;SDS011;4950;46.042;14.472;2024-01-11T09:28:31;71.03;;;37.53;;
9821;SDS011;4950;46.042;14.472;2024-01-11T09:30:57;68.90;;;36.67;;
9821;SDS011;4950;46.042;14.472;2024-01-11T09:33:26;76.73;;;38.40;;
9821;SDS011;4950;46.042;14.472;2024-01-11T09:35:54;66.90;;;35.90;;
9821;SDS011;4950;46.042;14.472;2024-01-11T09:38:21;66.73;;;36.97;;
9821;SDS011;4950;46.042;14.472;2024-01-11T09:40:48;69.50;;;37.90;;
9821;SDS011;4950;46.042;14.472;2024-01-11T09:43:26;59.93;;;33.33;;
9821;SDS011;4950;46.042;14.472;2024-01-11T09:45:53;68.13;;;35.33;;
9821;SDS011;4950;46.042;14.472;2024-01-11T09:48:22;62.70;;;33.33;;
9821;SDS011;4950;46.042;14.472;2024-01-11T09:50:52;62.60;;;34.73;;
9821;SDS011;4950;46.042;14.472;2024-01-11T09:53:20;61.88;;;33.38;;
9821;SDS011;4950;46.042;14.472;2024-01-11T09:55:48;70.43;;;38.37;;
9821;SDS011;4950;46.042;14.472;2024-01-11T09:58:16;61.83;;;35.67;;
9821;SDS011;4950;46.042;14.472;2024-01-11T10:00:43;62.27;;;34.80;;
9821;SDS011;4950;46.042;14.472;2024-01-11T10:03:11;63.93;;;36.27;;
9821;SDS011;4950;46.042;14.472;2024-01-11T10:05:38;65.63;;;37.33;;
9821;SDS011;4950;46.042;14.472;2024-01-11T10:08:08;62.43;;;35.87;;
9821;SDS011;4950;46.042;14.472;2024-01-11T10:10:35;70.77;;;35.90;;
9821;SDS011;4950;46.042;14.472;2024-01-11T10:13:02;62.13;;;34.77;;
9821;SDS011;4950;46.042;14.472;2024-01-11T10:15:29;65.37;;;35.17;;
9821;SDS011;4950;46.042;14.472;2024-01-11T10:17:55;60.23;;;35.43;;
9821;SDS011;4950;46.042;14.472;2024-01-11T10:20:22;64.97;;;35.50;;
9821;SDS011;4950;46.042;14.472;2024-01-11T10:22:49;61.83;;;34.07;;
9821;SDS011;4950;46.042;14.472;2024-01-11T10:25:19;65.23;;;35.30;;
9821;SDS011;4950;46.042;14.472;2024-01-11T10:27:46;66.95;;;36.05;;
9821;SDS011;4950;46.042;14.472;2024-01-11T10:30:13;62.97;;;34.20;;
9821;SDS011;4950;46.042;14.472;2024-01-11T10:32:41;61.47;;;35.60;;
9821;SDS011;4950;46.042;14.472;2024-01-11T10:35:08;62.23;;;33.53;;
9821;SDS011;4950;46.042;14.472;2024-01-11T10:37:35;61.57;;;34.57;;
9821;SDS011;4950;46.042;14.472;2024-01-11T10:40:06;69.72;;;37.58;;
9821;SDS011;4950;46.042;14.472;2024-01-11T10:42:37;60.53;;;37.03;;
9821;SDS011;4950;46.042;14.472;2024-01-11T10:45:08;66.27;;;36.17;;
9821;SDS011;4950;46.042;14.472;2024-01-11T10:47:40;61.60;;;36.37;;
9821;SDS011;4950;46.042;14.472;2024-01-11T10:50:14;68.90;;;37.23;;
9821;SDS011;4950;46.042;14.472;2024-01-11T10:52:45;63.95;;;37.13;;
9821;SDS011;4950;46.042;14.472;2024-01-11T10:55:20;63.97;;;37.53;;
9821;SDS011;4950;46.042;14.472;2024-01-11T10:57:50;69.37;;;37.03;;
9821;SDS011;4950;46.042;14.472;2024-01-11T11:00:19;58.30;;;35.07;;
9821;SDS011;4950;46.042;14.472;2024-01-11T11:02:47;59.10;;;36.30;;
9821;SDS011;4950;46.042;14.472;2024-01-11T11:05:15;64.47;;;36.43;;
9821;SDS011;4950;46.042;14.472;2024-01-11T11:07:46;58.13;;;33.50;;
9821;SDS011;4950;46.042;14.472;2024-01-11T11:10:14;63.38;;;37.22;;
9821;SDS011;4950;46.042;14.472;2024-01-11T11:12:41;69.57;;;38.22;;
9821;SDS011;4950;46.042;14.472;2024-01-11T11:15:12;60.55;;;36.10;;
9821;SDS011;4950;46.042;14.472;2024-01-11T11:17:39;62.78;;;37.15;;
9821;SDS011;4950;46.042;14.472;2024-01-11T11:20:07;69.03;;;37.38;;
9821;SDS011;4950;46.042;14.472;2024-01-11T11:22:37;64.68;;;37.28;;
9821;SDS011;4950;46.042;14.472;2024-01-11T11:25:06;66.28;;;37.30;;
9821;SDS011;4950;46.042;14.472;2024-01-11T11:27:35;62.03;;;36.55;;
9821;SDS011;4950;46.042;14.472;2024-01-11T11:30:02;57.35;;;35.58;;
9821;SDS011;4950;46.042;14.472;2024-01-11T11:32:38;55.80;;;32.85;;
9821;SDS011;4950;46.042;14.472;2024-01-11T11:35:08;59.78;;;36.60;;
9821;SDS011;4950;46.042;14.472;2024-01-11T11:37:36;60.20;;;34.20;;
9821;SDS011;4950;46.042;14.472;2024-01-11T11:40:03;56.33;;;34.03;;
9821;SDS011;4950;46.042;14.472;2024-01-11T11:42:31;70.88;;;33.83;;
9821;SDS011;4950;46.042;14.472;2024-01-11T11:44:58;57.92;;;30.55;;
9821;SDS011;4950;46.042;14.472;2024-01-11T11:47:25;52.63;;;28.85;;
9821;SDS011;4950;46.042;14.472;2024-01-11T11:50:04;44.65;;;27.00;;
9821;SDS011;4950;46.042;14.472;2024-01-11T11:52:32;46.35;;;24.10;;
9821;SDS011;4950;46.042;14.472;2024-01-11T11:55:01;45.95;;;26.58;;
9821;SDS011;4950;46.042;14.472;2024-01-11T11:57:28;45.20;;;27.35;;
9821;SDS011;4950;46.042;14.472;2024-01-11T11:59:55;48.28;;;28.13;;
9821;SDS011;4950;46.042;14.472;2024-01-11T12:02:24;51.53;;;29.25;;
9821;SDS011;4950;46.042;14.472;2024-01-11T12:04:51;46.22;;;27.98;;
9821;SDS011;4950;46.042;14.472;2024-01-11T12:07:20;43.75;;;26.90;;
9821;SDS011;4950;46.042;14.472;2024-01-11T12:09:48;47.58;;;27.27;;
9821;SDS011;4950;46.042;14.472;2024-01-11T12:12:15;44.80;;;27.52;;
9821;SDS011;4950;46.042;14.472;2024-01-11T12:14:42;47.13;;;28.50;;
9821;SDS011;4950;46.042;14.472;2024-01-11T12:17:11;48.45;;;29.45;;
9821;SDS011;4950;46.042;14.472;2024-01-11T12:19:38;47.92;;;27.38;;
9821;SDS011;4950;46.042;14.472;2024-01-11T12:22:04;49.47;;;28.67;;
9821;SDS011;4950;46.042;14.472;2024-01-11T12:24:33;56.22;;;27.65;;
9821;SDS011;4950;46.042;14.472;2024-01-11T12:27:00;47.97;;;27.58;;
9821;SDS011;4950;46.042;14.472;2024-01-11T12:29:28;42.10;;;24.95;;
9821;SDS011;4950;46.042;14.472;2024-01-11T12:31:56;49.88;;;26.65;;
9821;SDS011;4950;46.042;14.472;2024-01-11T12:34:23;41.95;;;25.08;;
9821;SDS011;4950;46.042;14.472;2024-01-11T12:36:51;46.95;;;26.48;;
9821;SDS011;4950;46.042;14.472;2024-01-11T12:39:20;41.58;;;25.23;;
9821;SDS011;4950;46.042;14.472;2024-01-11T12:41:49;44.92;;;26.52;;
9821;SDS011;4950;46.042;14.472;2024-01-11T12:44:17;47.58;;;26.50;;
9821;SDS011;4950;46.042;14.472;2024-01-11T12:46:47;43.92;;;25.13;;
9821;SDS011;4950;46.042;14.472;2024-01-11T12:49:14;42.22;;;25.85;;
9821;SDS011;4950;46.042;14.472;2024-01-11T12:51:41;40.83;;;25.25;;
9821;SDS011;4950;46.042;14.472;2024-01-11T12:54:10;38.53;;;24.55;;
9821;SDS011;4950;46.042;14.472;2024-01-11T12:56:40;44.80;;;22.35;;
9821;SDS011;4950;46.042;14.472;2024-01-11T12:59:09;37.88;;;23.33;;
9821;SDS011;4950;46.042;14.472;2024-01-11T13:01:37;38.40;;;23.02;;
9821;SDS011;4950;46.042;14.472;2024-01-11T13:04:05;35.78;;;20.75;;
9821;SDS011;4950;46.042;14.472;2024-01-11T13:06:34;39.97;;;22.23;;
9821;SDS011;4950;46.042;14.472;2024-01-11T13:09:01;36.30;;;22.00;;
9821;SDS011;4950;46.042;14.472;2024-01-11T13:11:29;41.00;;;21.70;;
9821;SDS011;4950;46.042;14.472;2024-01-11T13:13:56;36.10;;;23.23;;
9821;SDS011;4950;46.042;14.472;2024-01-11T13:16:25;40.08;;;23.02;;
9821;SDS011;4950;46.042;14.472;2024-01-11T13:18:52;47.92;;;24.13;;
9821;SDS011;4950;46.042;14.472;2024-01-11T13:21:19;45.25;;;24.13;;
9821;SDS011;4950;46.042;14.472;2024-01-11T13:23:45;42.15;;;24.73;;
9821;SDS011;4950;46.042;14.472;2024-01-11T13:26:12;39.08;;;23.23;;
9821;SDS011;4950;46.042;14.472;2024-01-11T13:28:39;37.67;;;22.40;;
9821;SDS011;4950;46.042;14.472;2024-01-11T13:31:05;39.58;;;24.13;;
9821;SDS011;4950;46.042;14.472;2024-01-11T13:33:36;34.83;;;20.92;;
9821;SDS011;4950;46.042;14.472;2024-01-11T13:36:03;34.97;;;19.03;;
9821;SDS011;4950;46.042;14.472;2024-01-11T13:38:32;28.52;;;17.20;;
9821;SDS011;4950;46.042;14.472;2024-01-11T13:40:59;29.02;;;17.95;;
9821;SDS011;4950;46.042;14.472;2024-01-11T13:43:26;29.45;;;17.63;;
9821;SDS011;4950;46.042;14.472;2024-01-11T13:45:53;28.10;;;15.57;;
9821;SDS011;4950;46.042;14.472;2024-01-11T13:48:20;28.83;;;17.33;;
9821;SDS011;4950;46.042;14.472;2024-01-11T13:50:48;33.70;;;18.45;;
9821;SDS011;4950;46.042;14.472;2024-01-11T13:53:15;31.65;;;17.13;;
9821;SDS011;4950;46.042;14.472;2024-01-11T13:55:42;27.42;;;16.00;;
9821;SDS011;4950;46.042;14.472;2024-01-11T13:58:09;31.05;;;16.77;;
9821;SDS011;4950;46.042;14.472;2024-01-11T14:00:37;29.17;;;16.30;;
9821;SDS011;4950;46.042;14.472;2024-01-11T14:03:04;32.33;;;18.60;;
9821;SDS011;4950;46.042;14.472;2024-01-11T14:05:31;29.08;;;18.23;;
9821;SDS011;4950;46.042;14.472;2024-01-11T14:07:59;43.30;;;17.65;;
9821;SDS011;4950;46.042;14.472;2024-01-11T14:10:26;34.75;;;17.95;;
9821;SDS011;4950;46.042;14.472;2024-01-11T14:12:53;36.00;;;18.73;;
9821;SDS011;4950;46.042;14.472;2024-01-11T14:15:20;29.45;;;16.88;;
9821;SDS011;4950;46.042;14.472;2024-01-11T14:17:47;35.28;;;19.05;;
9821;SDS011;4950;46.042;14.472;2024-01-11T14:20:14;40.60;;;20.38;;
9821;SDS011;4950;46.042;14.472;2024-01-11T14:22:40;34.78;;;20.45;;
9821;SDS011;4950;46.042;14.472;2024-01-11T14:25:13;38.85;;;23.13;;
9821;SDS011;4950;46.042;14.472;2024-01-11T14:27:40;40.92;;;23.70;;
9821;SDS011;4950;46.042;14.472;2024-01-11T14:30:10;41.63;;;25.00;;
9821;SDS011;4950;46.042;14.472;2024-01-11T14:32:37;63.25;;;37.78;;
9821;SDS011;4950;46.042;14.472;2024-01-11T14:35:06;82.15;;;44.97;;
9821;SDS011;4950;46.042;14.472;2024-01-11T14:37:34;46.67;;;27.30;;